Time,TemperatureF,DewpointF,PressureIn,WindDirection,WindDirectionDegrees,WindSpeedMPH,WindSpeedGustMPH,Humidity,HourlyPrecipIn,Conditions,Clouds,dailyrainin,SolarRadiationWatts/m^2,SoftwareType,DateUTC
2013-02-27 00:00:00,76.7,72.5,29.85,SW,234,2.0,5.0,87,0.00,,CLR,0.00,0.00,VWS V14.00,2013-02-27 05:00:00,
2013-02-27 00:05:00,76.7,72.5,29.85,SW,235,4.0,4.0,87,0.00,,CLR,0.00,0.00,VWS V14.00,2013-02-27 05:05:00,
2013-02-27 00:10:00,76.7,72.9,29.85,WSW,252,5.0,6.0,88,0.00,,CLR,0.00,0.00,VWS V14.00,2013-02-27 05:10:00,
2013-02-27 00:15:00,76.7,72.9,29.85,WSW,251,0.0,6.0,88,0.00,,CLR,0.00,0.00,VWS V14.00,2013-02-27 05:15:00,
2013-02-27 00:20:00,76.8,73.0,29.85,WSW,252,0.0,4.0,88,0.00,,CLR,0.00,0.00,VWS V14.00,2013-02-27 05:20:00,
2013-02-27 00:25:00,76.8,73.0,29.84,WSW,249,6.0,7.0,88,0.00,,CLR,0.00,0.00,VWS V14.00,2013-02-27 05:25:00,
2013-02-27 00:30:00,76.7,72.9,29.84,WSW,248,2.0,5.0,88,0.00,,CLR,0.00,0.00,VWS V14.00,2013-02-27 05:30:00,
2013-02-27 00:35:00,76.7,72.9,29.84,WSW,243,5.0,7.0,88,0.00,,CLR,0.00,0.00,VWS V14.00,2013-02-27 05:35:00,
2013-02-27 00:40:00,76.7,72.9,29.84,WSW,244,0.0,5.0,88,0.00,,CLR,0.00,0.00,VWS V14.00,2013-02-27 05:40:00,
2013-02-27 00:45:00,76.6,72.8,29.84,WSW,245,3.0,5.0,88,0.00,,CLR,0.00,0.00,VWS V14.00,2013-02-27 05:45:00,
2013-02-27 00:50:00,76.6,72.8,29.84,WSW,243,5.0,5.0,88,0.00,,CLR,0.00,0.00,VWS V14.00,2013-02-27 05:50:00,
2013-02-27 00:55:00,76.6,72.8,29.84,WSW,242,1.0,6.0,88,0.00,,CLR,0.00,0.00,VWS V14.00,2013-02-27 05:55:00,
2013-02-27 01:00:00,76.5,72.7,29.84,WSW,241,1.0,2.0,88,0.00,,CLR,0.00,0.00,VWS V14.00,2013-02-27 06:00:00,
2013-02-27 01:05:00,76.5,72.7,29.84,WSW,241,1.0,3.0,88,0.00,,CLR,0.00,0.00,VWS V14.00,2013-02-27 06:05:00,
2013-02-27 01:11:00,76.4,72.6,29.84,WSW,241,3.0,4.0,88,0.00,,CLR,0.00,0.00,VWS V14.00,2013-02-27 06:11:00,
2013-02-27 01:16:00,76.4,72.6,29.84,WSW,241,2.0,3.0,88,0.00,,CLR,0.00,0.00,VWS V14.00,2013-02-27 06:16:00,
2013-02-27 01:21:00,76.4,72.6,29.84,WSW,244,5.0,7.0,88,0.00,,CLR,0.00,0.00,VWS V14.00,2013-02-27 06:21:00,
2013-02-27 01:26:00,76.3,72.5,29.84,WSW,244,0.0,0.0,88,0.00,,CLR,0.00,0.00,VWS V14.00,2013-02-27 06:26:00,
2013-02-27 01:31:00,76.2,72.4,29.84,WSW,244,0.0,0.0,88,0.00,,CLR,0.00,0.00,VWS V14.00,2013-02-27 06:31:00,
2013-02-27 01:36:00,76.2,72.4,29.84,WSW,244,0.0,0.0,88,0.00,,CLR,0.00,0.00,VWS V14.00,2013-02-27 06:36:00,
2013-02-27 01:41:00,76.2,72.7,29.84,WSW,245,0.0,1.0,89,0.00,,CLR,0.00,0.00,VWS V14.00,2013-02-27 06:41:00,
2013-02-27 01:46:00,76.1,72.6,29.83,WSW,245,4.0,4.0,89,0.00,,CLR,0.00,0.00,VWS V14.00,2013-02-27 06:46:00,
2013-02-27 01:51:00,76.0,72.5,29.83,WSW,245,0.0,1.0,89,0.00,,CLR,0.00,0.00,VWS V14.00,2013-02-27 06:51:00,
2013-02-27 01:56:00,76.0,72.5,29.83,WSW,245,0.0,1.0,89,0.00,,CLR,0.00,0.00,VWS V14.00,2013-02-27 06:56:00,
2013-02-27 02:01:00,76.0,72.5,29.83,WSW,245,0.0,3.0,89,0.00,,CLR,0.00,0.00,VWS V14.00,2013-02-27 07:01:00,
2013-02-27 02:06:00,76.0,72.5,29.83,WSW,245,0.0,7.0,89,0.00,,CLR,0.00,0.00,VWS V14.00,2013-02-27 07:06:00,
2013-02-27 02:11:00,76.0,72.5,29.83,WSW,245,4.0,5.0,89,0.00,,CLR,0.00,0.00,VWS V14.00,2013-02-27 07:11:00,
2013-02-27 02:16:00,76.0,72.5,29.83,WSW,245,4.0,8.0,89,0.00,,CLR,0.00,0.00,VWS V14.00,2013-02-27 07:16:00,
2013-02-27 02:21:00,75.9,72.8,29.83,WSW,245,4.0,5.0,90,0.00,,CLR,0.00,0.00,VWS V14.00,2013-02-27 07:21:00,
2013-02-27 02:26:00,75.9,72.8,29.83,WSW,246,0.0,3.0,90,0.00,,CLR,0.00,0.00,VWS V14.00,2013-02-27 07:26:00,
2013-02-27 02:31:00,75.9,72.8,29.83,WSW,247,3.0,4.0,90,0.00,,CLR,0.00,0.00,VWS V14.00,2013-02-27 07:31:00,
2013-02-27 02:36:00,75.9,72.8,29.82,WSW,251,6.0,7.0,90,0.00,,CLR,0.00,0.00,VWS V14.00,2013-02-27 07:36:00,
2013-02-27 02:41:00,75.8,72.7,29.83,WSW,252,2.0,6.0,90,0.00,,CLR,0.00,0.00,VWS V14.00,2013-02-27 07:41:00,
2013-02-27 02:46:00,75.8,72.7,29.83,WSW,252,1.0,4.0,90,0.00,,CLR,0.00,0.00,VWS V14.00,2013-02-27 07:46:00,
2013-02-27 02:51:00,75.7,72.6,29.83,WSW,252,0.0,4.0,90,0.00,,CLR,0.00,0.00,VWS V14.00,2013-02-27 07:51:00,
2013-02-27 02:56:00,75.6,72.8,29.82,WSW,254,3.0,6.0,91,0.00,,CLR,0.00,0.00,VWS V14.00,2013-02-27 07:56:00,
2013-02-27 03:01:00,75.6,72.8,29.82,WSW,254,5.0,5.0,91,0.00,,CLR,0.00,0.00,VWS V14.00,2013-02-27 08:01:00,
2013-02-27 03:06:00,75.5,72.7,29.82,WSW,255,3.0,4.0,91,0.00,,CLR,0.00,0.00,VWS V14.00,2013-02-27 08:06:00,
2013-02-27 03:11:00,75.4,72.6,29.83,WSW,255,1.0,5.0,91,0.00,,CLR,0.00,0.00,VWS V14.00,2013-02-27 08:11:00,
2013-02-27 03:16:00,75.3,72.5,29.82,WSW,258,0.0,3.0,91,0.00,,CLR,0.00,0.00,VWS V14.00,2013-02-27 08:16:00,
2013-02-27 03:21:00,75.3,72.5,29.83,West,259,0.0,2.0,91,0.00,,CLR,0.00,0.00,VWS V14.00,2013-02-27 08:21:00,
2013-02-27 03:26:00,75.1,72.3,29.83,WNW,290,3.0,9.0,91,0.00,,CLR,0.00,0.00,VWS V14.00,2013-02-27 08:26:00,
2013-02-27 03:31:00,75.0,72.2,29.83,WNW,290,1.0,7.0,91,0.00,,CLR,0.00,0.00,VWS V14.00,2013-02-27 08:31:00,
2013-02-27 03:36:00,74.9,72.1,29.82,WNW,290,4.0,6.0,91,0.00,,CLR,0.00,0.00,VWS V14.00,2013-02-27 08:36:00,
2013-02-27 03:41:00,74.7,71.9,29.82,WNW,290,0.0,0.0,91,0.00,,CLR,0.00,0.00,VWS V14.00,2013-02-27 08:41:00,
2013-02-27 03:46:00,74.5,71.7,29.82,WNW,290,0.0,6.0,91,0.00,,CLR,0.00,0.00,VWS V14.00,2013-02-27 08:46:00,
2013-02-27 03:51:00,74.2,71.4,29.82,WNW,292,5.0,5.0,91,0.00,,CLR,0.00,0.00,VWS V14.00,2013-02-27 08:51:00,
2013-02-27 03:56:00,74.1,71.3,29.82,WNW,292,0.0,3.0,91,0.00,,CLR,0.00,0.00,VWS V14.00,2013-02-27 08:56:00,
2013-02-27 04:01:00,74.0,71.2,29.82,WNW,292,0.0,0.0,91,0.00,,CLR,0.00,0.00,VWS V14.00,2013-02-27 09:01:00,
2013-02-27 04:06:00,73.9,71.1,29.82,WNW,292,0.0,6.0,91,0.00,,CLR,0.00,0.00,VWS V14.00,2013-02-27 09:06:00,
2013-02-27 04:11:00,73.8,71.0,29.82,WNW,292,1.0,1.0,91,0.00,,CLR,0.00,0.00,VWS V14.00,2013-02-27 09:11:00,
2013-02-27 04:16:00,73.7,70.9,29.82,WNW,292,0.0,1.0,91,0.00,,CLR,0.00,0.00,VWS V14.00,2013-02-27 09:16:00,
2013-02-27 04:21:00,73.5,70.7,29.82,WNW,292,1.0,3.0,91,0.00,,CLR,0.00,0.00,VWS V14.00,2013-02-27 09:21:00,
2013-02-27 04:26:00,72.6,69.5,29.82,WNW,294,0.0,1.0,90,0.00,,CLR,0.00,0.00,VWS V14.00,2013-02-27 09:26:00,
2013-02-27 04:31:00,71.7,68.6,29.82,WNW,296,1.0,6.0,90,0.00,,CLR,0.00,0.00,VWS V14.00,2013-02-27 09:31:00,
2013-02-27 04:36:00,71.3,68.2,29.82,WNW,296,0.0,3.0,90,0.00,,CLR,0.00,0.00,VWS V14.00,2013-02-27 09:36:00,
2013-02-27 04:41:00,71.2,68.1,29.83,WNW,297,0.0,3.0,90,0.00,,CLR,0.00,0.00,VWS V14.00,2013-02-27 09:41:00,
2013-02-27 04:46:00,71.2,67.8,29.83,WNW,298,3.0,4.0,89,0.00,,CLR,0.00,0.00,VWS V14.00,2013-02-27 09:46:00,
2013-02-27 04:51:00,71.2,67.8,29.83,WNW,298,5.0,5.0,89,0.00,,CLR,0.00,0.00,VWS V14.00,2013-02-27 09:51:00,
2013-02-27 04:56:00,71.0,67.3,29.83,WNW,299,3.0,6.0,88,0.00,,CLR,0.00,0.00,VWS V14.00,2013-02-27 09:56:00,
2013-02-27 05:01:00,70.9,67.2,29.83,WNW,301,2.0,4.0,88,0.00,,CLR,0.00,0.00,VWS V14.00,2013-02-27 10:01:00,
2013-02-27 05:06:00,70.9,66.8,29.83,WNW,301,1.0,4.0,87,0.00,,CLR,0.00,0.00,VWS V14.00,2013-02-27 10:06:00,
2013-02-27 05:11:00,70.8,66.7,29.84,WNW,301,0.0,3.0,87,0.00,,CLR,0.00,0.00,VWS V14.00,2013-02-27 10:11:00,
2013-02-27 05:16:00,70.8,66.7,29.84,WNW,301,0.0,0.0,87,0.00,,CLR,0.00,0.00,VWS V14.00,2013-02-27 10:16:00,
2013-02-27 05:21:00,70.9,66.8,29.85,WNW,302,4.0,4.0,87,0.00,,CLR,0.00,0.00,VWS V14.00,2013-02-27 10:21:00,
2013-02-27 05:27:00,70.9,66.8,29.85,NNW,333,6.0,6.0,87,0.00,,CLR,0.00,0.00,VWS V14.00,2013-02-27 10:27:00,
2013-02-27 05:32:00,70.8,66.7,29.85,NNW,334,5.0,5.0,87,0.00,,CLR,0.00,0.00,VWS V14.00,2013-02-27 10:32:00,
2013-02-27 05:37:00,70.6,66.2,29.85,NNW,346,6.0,7.0,86,0.00,,CLR,0.00,0.00,VWS V14.00,2013-02-27 10:37:00,
2013-02-27 05:42:00,70.4,66.0,29.85,NNW,348,3.0,6.0,86,0.00,,CLR,0.00,0.00,VWS V14.00,2013-02-27 10:42:00,
2013-02-27 05:47:00,70.4,66.0,29.85,North,360,7.0,7.0,86,0.00,,CLR,0.00,0.00,VWS V14.00,2013-02-27 10:47:00,
2013-02-27 05:52:00,70.4,66.0,29.85,North,360,6.0,6.0,86,0.00,,CLR,0.00,0.00,VWS V14.00,2013-02-27 10:52:00,
2013-02-27 05:57:00,70.4,66.0,29.85,North,360,3.0,4.0,86,0.00,,CLR,0.00,0.00,VWS V14.00,2013-02-27 10:57:00,
2013-02-27 06:02:00,70.3,65.9,29.86,North,360,1.0,5.0,86,0.00,,CLR,0.00,0.00,VWS V14.00,2013-02-27 11:02:00,
2013-02-27 06:07:00,70.3,65.9,29.86,North,360,4.0,6.0,86,0.00,,CLR,0.00,0.00,VWS V14.00,2013-02-27 11:07:00,
2013-02-27 06:12:00,70.3,65.9,29.86,North,360,3.0,4.0,86,0.00,,CLR,0.00,0.00,VWS V14.00,2013-02-27 11:12:00,
2013-02-27 06:17:00,70.2,65.8,29.86,North,360,7.0,9.0,86,0.00,,CLR,0.00,0.00,VWS V14.00,2013-02-27 11:17:00,
2013-02-27 06:22:00,70.2,66.2,29.87,North,355,2.0,4.0,87,0.00,,CLR,0.00,0.00,VWS V14.00,2013-02-27 11:22:00,
2013-02-27 06:27:00,70.1,66.1,29.86,North,355,2.0,4.0,87,0.00,,CLR,0.00,0.00,VWS V14.00,2013-02-27 11:27:00,
2013-02-27 06:32:00,70.1,66.1,29.87,North,355,2.0,6.0,87,0.00,,CLR,0.00,0.00,VWS V14.00,2013-02-27 11:32:00,
2013-02-27 06:37:00,70.0,65.6,29.87,North,360,4.0,7.0,86,0.00,,CLR,0.00,0.00,VWS V14.00,2013-02-27 11:37:00,
2013-02-27 06:42:00,69.9,65.9,29.87,North,5,3.0,7.0,87,0.00,,CLR,0.00,0.00,VWS V14.00,2013-02-27 11:42:00,
2013-02-27 06:47:00,69.8,65.8,29.87,North,360,5.0,9.0,87,0.00,,CLR,0.00,0.00,VWS V14.00,2013-02-27 11:47:00,
2013-02-27 06:52:00,69.7,65.7,29.87,North,360,4.0,5.0,87,0.00,,CLR,0.00,0.00,VWS V14.00,2013-02-27 11:52:00,
2013-02-27 06:57:00,69.7,65.7,29.87,North,360,5.0,6.0,87,0.00,,CLR,0.00,0.00,VWS V14.00,2013-02-27 11:57:00,
2013-02-27 07:02:00,69.7,65.7,29.88,North,360,3.0,10.0,87,0.00,,CLR,0.00,0.00,VWS V14.00,2013-02-27 12:02:00,
2013-02-27 07:07:00,69.6,65.9,29.88,North,355,5.0,6.0,88,0.00,,CLR,0.00,0.00,VWS V14.00,2013-02-27 12:07:00,
2013-02-27 07:12:00,69.6,65.9,29.88,North,349,4.0,4.0,88,0.00,,CLR,0.00,0.00,VWS V14.00,2013-02-27 12:12:00,
2013-02-27 07:17:00,69.6,65.9,29.88,NNW,345,2.0,5.0,88,0.00,,CLR,0.00,0.00,VWS V14.00,2013-02-27 12:17:00,
2013-02-27 07:22:00,69.6,65.9,29.88,North,355,1.0,6.0,88,0.00,,CLR,0.00,0.00,VWS V14.00,2013-02-27 12:22:00,
2013-02-27 07:27:00,69.5,65.8,29.88,North,355,3.0,4.0,88,0.00,,CLR,0.00,9.00,VWS V14.00,2013-02-27 12:27:00,
2013-02-27 07:32:00,69.5,65.8,29.89,North,355,6.0,7.0,88,0.00,,-RA,0.00,16.00,VWS V14.00,2013-02-27 12:32:00,
2013-02-27 07:37:00,69.5,65.8,29.89,North,355,6.0,6.0,88,0.00,,-RA,0.00,9.00,VWS V14.00,2013-02-27 12:37:00,
2013-02-27 07:42:00,69.4,65.7,29.89,North,360,4.0,9.0,88,0.00,,-RA,0.00,9.00,VWS V14.00,2013-02-27 12:42:00,
2013-02-27 07:47:00,69.3,65.6,29.89,North,5,5.0,10.0,88,0.00,,-RA,0.00,21.00,VWS V14.00,2013-02-27 12:47:00,
2013-02-27 07:52:00,69.4,65.7,29.89,North,5,3.0,4.0,88,0.00,,-RA,0.00,35.00,VWS V14.00,2013-02-27 12:52:00,
2013-02-27 07:57:00,69.3,65.6,29.89,NNE,16,5.0,7.0,88,0.00,,-RA,0.00,42.00,VWS V14.00,2013-02-27 12:57:00,
2013-02-27 08:02:00,69.2,65.5,29.89,NNE,28,6.0,6.0,88,0.00,,-RA,0.00,42.00,VWS V14.00,2013-02-27 13:02:00,
2013-02-27 08:07:00,69.3,65.6,29.89,NNE,14,6.0,8.0,88,0.00,,-RA,0.00,32.00,VWS V14.00,2013-02-27 13:07:00,
2013-02-27 08:12:00,69.2,65.2,29.89,NE,36,4.0,7.0,87,0.00,,-RA,0.00,33.00,VWS V14.00,2013-02-27 13:12:00,
2013-02-27 08:17:00,69.1,64.7,29.89,NNE,14,9.0,11.0,86,0.00,,-RA,0.00,33.00,VWS V14.00,2013-02-27 13:17:00,
2013-02-27 08:22:00,69.2,64.8,29.89,NNE,26,2.0,7.0,86,0.00,,-RA,0.00,37.00,VWS V14.00,2013-02-27 13:22:00,
2013-02-27 08:27:00,69.3,64.9,29.90,NNE,23,5.0,6.0,86,0.00,,-RA,0.00,47.00,VWS V14.00,2013-02-27 13:27:00,
2013-02-27 08:32:00,69.4,65.0,29.90,North,5,12.0,13.0,86,0.00,,BKN050,0.00,130.00,VWS V14.00,2013-02-27 13:32:00,
2013-02-27 08:37:00,69.5,64.8,29.90,NNE,26,7.0,7.0,85,0.00,,BKN050,0.00,128.00,VWS V14.00,2013-02-27 13:37:00,
2013-02-27 08:42:00,69.7,64.7,29.90,North,360,5.0,9.0,84,0.00,,BKN050,0.00,77.00,VWS V14.00,2013-02-27 13:42:00,
2013-02-27 08:47:00,69.8,64.8,29.90,NNE,13,5.0,10.0,84,0.00,,BKN050,0.00,141.00,VWS V14.00,2013-02-27 13:47:00,
2013-02-27 08:53:00,70.0,64.9,29.91,North,5,10.0,10.0,84,0.00,,BKN050,0.00,109.00,VWS V14.00,2013-02-27 13:53:00,
2013-02-27 08:58:00,69.8,64.4,29.91,North,5,6.0,9.0,83,0.00,,BKN050,0.00,81.00,VWS V14.00,2013-02-27 13:58:00,
2013-02-27 09:03:00,70.1,64.7,29.91,North,9,3.0,10.0,83,0.00,,BKN050,0.00,128.00,VWS V14.00,2013-02-27 14:03:00,
2013-02-27 09:08:00,70.1,64.4,29.91,North,10,9.0,11.0,82,0.00,,BKN050,0.00,116.00,VWS V14.00,2013-02-27 14:08:00,
2013-02-27 09:13:00,70.0,64.3,29.91,North,5,7.0,10.0,82,0.00,,BKN050,0.00,142.00,VWS V14.00,2013-02-27 14:13:00,
2013-02-27 09:18:00,70.2,64.4,29.91,North,5,11.0,11.0,82,0.00,,BKN050,0.00,137.00,VWS V14.00,2013-02-27 14:18:00,
2013-02-27 09:23:00,70.4,64.7,29.91,NNE,20,10.0,14.0,82,0.00,,BKN050,0.00,141.00,VWS V14.00,2013-02-27 14:23:00,
2013-02-27 09:28:00,70.4,64.3,29.91,North,9,9.0,9.0,81,0.00,,BKN050,0.00,149.00,VWS V14.00,2013-02-27 14:28:00,
2013-02-27 09:33:00,70.6,64.1,29.91,North,9,7.0,9.0,80,0.00,,SCT050,0.00,144.00,VWS V14.00,2013-02-27 14:33:00,
2013-02-27 09:38:00,70.8,64.3,29.91,NE,35,1.0,11.0,80,0.00,,SCT050,0.00,135.00,VWS V14.00,2013-02-27 14:38:00,
2013-02-27 09:43:00,70.8,64.0,29.91,NNE,33,0.0,10.0,79,0.00,,SCT050,0.00,135.00,VWS V14.00,2013-02-27 14:43:00,
2013-02-27 09:48:00,70.9,64.1,29.91,NNE,33,5.0,8.0,79,0.00,,SCT050,0.00,141.00,VWS V14.00,2013-02-27 14:48:00,
2013-02-27 09:53:00,71.2,64.0,29.91,North,5,6.0,6.0,78,0.00,,SCT050,0.00,142.00,VWS V14.00,2013-02-27 14:53:00,
2013-02-27 09:58:00,71.5,64.3,29.91,NNE,21,8.0,9.0,78,0.00,,SCT050,0.00,144.00,VWS V14.00,2013-02-27 14:58:00,
2013-02-27 10:03:00,71.3,63.7,29.91,NNE,24,1.0,7.0,77,0.00,,SCT050,0.00,165.00,VWS V14.00,2013-02-27 15:03:00,
2013-02-27 10:08:00,71.5,63.9,29.91,NNE,26,5.0,8.0,77,0.00,,SCT050,0.00,102.00,VWS V14.00,2013-02-27 15:08:00,
2013-02-27 10:13:00,71.6,64.0,29.91,North,9,4.0,6.0,77,0.00,,SCT050,0.00,83.00,VWS V14.00,2013-02-27 15:13:00,
2013-02-27 10:18:00,71.6,64.0,29.91,NNE,15,0.0,7.0,77,0.00,,SCT050,0.00,76.00,VWS V14.00,2013-02-27 15:18:00,
2013-02-27 10:23:00,71.9,64.3,29.91,North,10,7.0,12.0,77,0.00,,SCT050,0.00,116.00,VWS V14.00,2013-02-27 15:23:00,
2013-02-27 10:28:00,72.1,63.8,29.92,North,5,3.0,6.0,75,0.00,,SCT050,0.00,141.00,VWS V14.00,2013-02-27 15:28:00,
2013-02-27 10:33:00,72.4,64.0,29.92,North,11,4.0,7.0,75,0.00,,SCT050,0.00,179.00,VWS V14.00,2013-02-27 15:33:00,
2013-02-27 10:38:00,72.8,64.0,29.92,NE,39,11.0,11.0,74,0.00,,SCT050,0.00,113.00,VWS V14.00,2013-02-27 15:38:00,
2013-02-27 10:43:00,72.7,63.9,29.92,NNW,337,5.0,6.0,74,0.00,,SCT050,0.00,116.00,VWS V14.00,2013-02-27 15:43:00,
2013-02-27 10:48:00,72.8,63.7,29.92,North,5,6.0,9.0,73,0.00,,SCT050,0.00,121.00,VWS V14.00,2013-02-27 15:48:00,
2013-02-27 10:53:00,73.0,63.8,29.92,NNE,29,5.0,6.0,73,0.00,,SCT050,0.00,116.00,VWS V14.00,2013-02-27 15:53:00,
2013-02-27 10:58:00,73.2,63.6,29.92,NNE,14,6.0,9.0,72,0.00,,SCT050,0.00,125.00,VWS V14.00,2013-02-27 15:58:00,
2013-02-27 11:03:00,73.1,63.2,29.92,North,10,1.0,7.0,71,0.00,,SCT050,0.00,107.00,VWS V14.00,2013-02-27 16:03:00,
2013-02-27 11:08:00,73.3,63.7,29.92,North,9,1.0,6.0,72,0.00,,SCT050,0.00,91.00,VWS V14.00,2013-02-27 16:08:00,
2013-02-27 11:14:00,73.3,63.7,29.92,North,360,7.0,7.0,72,0.00,,SCT050,0.00,107.00,VWS V14.00,2013-02-27 16:14:00,
2013-02-27 11:19:00,73.2,63.6,29.92,North,355,8.0,9.0,72,0.00,,SCT050,0.00,88.00,VWS V14.00,2013-02-27 16:19:00,
2013-02-27 11:24:00,73.2,63.6,29.92,North,360,2.0,7.0,72,0.00,,SCT050,0.00,120.00,VWS V14.00,2013-02-27 16:24:00,
2013-02-27 11:29:00,73.2,63.6,29.92,NE,37,5.0,5.0,72,0.00,,SCT050,0.00,118.00,VWS V14.00,2013-02-27 16:29:00,
2013-02-27 11:34:00,73.2,63.2,29.92,NNE,13,2.0,4.0,71,0.00,,SCT050,0.00,107.00,VWS V14.00,2013-02-27 16:34:00,
2013-02-27 11:39:00,73.5,63.9,29.92,North,5,6.0,6.0,72,0.00,,SCT050,0.00,91.00,VWS V14.00,2013-02-27 16:39:00,
2013-02-27 11:44:00,73.4,62.6,29.92,North,5,2.0,6.0,69,0.00,,SCT050,0.00,79.00,VWS V14.00,2013-02-27 16:44:00,
2013-02-27 11:49:00,73.4,63.4,29.91,North,5,0.0,1.0,71,0.00,,SCT050,0.00,65.00,VWS V14.00,2013-02-27 16:49:00,
2013-02-27 11:54:00,73.3,63.3,29.91,NNE,18,1.0,6.0,71,0.00,,SCT050,0.00,60.00,VWS V14.00,2013-02-27 16:54:00,
2013-02-27 11:59:00,73.1,63.2,29.91,NNE,18,0.0,3.0,71,0.00,,SCT050,0.00,56.00,VWS V14.00,2013-02-27 16:59:00,
2013-02-27 12:04:00,73.1,63.2,29.91,NNW,338,5.0,5.0,71,0.00,,SCT050,0.00,49.00,VWS V14.00,2013-02-27 17:04:00,
2013-02-27 12:09:00,73.1,63.2,29.91,NNW,342,3.0,3.0,71,0.00,,SCT050,0.00,49.00,VWS V14.00,2013-02-27 17:09:00,
2013-02-27 12:14:00,73.1,63.5,29.91,NNW,345,0.0,5.0,72,0.00,,SCT050,0.00,47.00,VWS V14.00,2013-02-27 17:14:00,
2013-02-27 12:19:00,73.0,63.5,29.91,NNW,346,4.0,5.0,72,0.00,,SCT050,0.00,51.00,VWS V14.00,2013-02-27 17:19:00,
2013-02-27 12:24:00,72.9,63.0,29.91,NNW,345,4.0,6.0,71,0.00,,SCT050,0.00,49.00,VWS V14.00,2013-02-27 17:24:00,
2013-02-27 12:29:00,72.8,63.3,29.90,NNW,346,3.0,4.0,72,0.00,,SCT050,0.00,63.00,VWS V14.00,2013-02-27 17:29:00,
2013-02-27 12:34:00,73.0,63.5,29.90,NNW,346,2.0,5.0,72,0.00,,SCT050,0.00,44.00,VWS V14.00,2013-02-27 17:34:00,
2013-02-27 12:39:00,73.0,63.0,29.90,NNW,345,2.0,2.0,71,0.00,,SCT050,0.00,42.00,VWS V14.00,2013-02-27 17:39:00,
2013-02-27 12:44:00,73.0,63.0,29.90,NNW,345,1.0,3.0,71,0.00,,SCT050,0.00,58.00,VWS V14.00,2013-02-27 17:44:00,
2013-02-27 12:49:00,73.1,63.2,29.90,NNW,345,0.0,0.0,71,0.00,,SCT050,0.00,62.00,VWS V14.00,2013-02-27 17:49:00,
2013-02-27 12:54:00,73.1,63.2,29.90,NNW,345,0.0,0.0,71,0.00,,SCT050,0.00,49.00,VWS V14.00,2013-02-27 17:54:00,
2013-02-27 12:59:00,73.2,63.2,29.90,NNW,345,0.0,1.0,71,0.00,,SCT050,0.00,54.00,VWS V14.00,2013-02-27 17:59:00,
2013-02-27 13:04:00,73.1,63.2,29.90,NNW,341,3.0,5.0,71,0.00,,SCT050,0.00,49.00,VWS V14.00,2013-02-27 18:04:00,
2013-02-27 13:09:00,72.7,63.2,29.90,NNW,348,4.0,5.0,72,0.00,,SCT050,0.00,35.00,VWS V14.00,2013-02-27 18:09:00,
2013-02-27 13:14:00,72.1,63.0,29.90,North,5,5.0,6.0,73,0.00,,SCT050,0.00,26.00,VWS V14.00,2013-02-27 18:14:00,
2013-02-27 13:19:00,71.5,62.8,29.90,North,360,0.0,5.0,74,0.00,,SCT050,0.00,21.00,VWS V14.00,2013-02-27 18:19:00,
2013-02-27 13:24:00,71.0,62.3,29.90,North,351,4.0,6.0,74,0.00,,SCT050,0.00,25.00,VWS V14.00,2013-02-27 18:24:00,
2013-02-27 13:29:00,70.5,62.6,29.90,North,351,0.0,1.0,76,0.00,,SCT050,0.00,28.00,VWS V14.00,2013-02-27 18:29:00,
2013-02-27 13:34:00,70.3,62.8,29.89,North,351,0.0,1.0,77,0.00,,SCT050,0.00,44.00,VWS V14.00,2013-02-27 18:34:00,
2013-02-27 13:39:00,70.0,62.8,29.89,North,351,0.0,1.0,78,0.00,,SCT050,0.00,46.00,VWS V14.00,2013-02-27 18:39:00,
2013-02-27 13:44:00,69.9,62.7,29.88,North,351,0.0,0.0,78,0.00,,SCT050,0.00,39.00,VWS V14.00,2013-02-27 18:44:00,
2013-02-27 13:49:00,69.8,62.6,29.89,North,351,0.0,3.0,78,0.00,,SCT050,0.00,25.00,VWS V14.00,2013-02-27 18:49:00,
2013-02-27 13:54:00,69.8,63.0,29.89,North,351,0.0,0.0,79,0.00,,SCT050,0.00,19.00,VWS V14.00,2013-02-27 18:54:00,
2013-02-27 13:59:00,69.8,63.0,29.89,North,351,0.0,0.0,79,0.00,,SCT050,0.00,18.00,VWS V14.00,2013-02-27 18:59:00,
2013-02-27 14:04:00,69.8,63.4,29.89,North,351,2.0,2.0,80,0.00,,SCT050,0.00,19.00,VWS V14.00,2013-02-27 19:04:00,
2013-02-27 14:09:00,69.9,63.5,29.89,North,351,0.0,1.0,80,0.00,,SCT050,0.00,26.00,VWS V14.00,2013-02-27 19:09:00,
2013-02-27 14:14:00,70.0,63.5,29.89,North,351,0.0,0.0,80,0.00,,SCT050,0.00,14.00,VWS V14.00,2013-02-27 19:14:00,
2013-02-27 14:19:00,70.0,63.5,29.88,North,351,0.0,0.0,80,0.00,,SCT050,0.00,21.00,VWS V14.00,2013-02-27 19:19:00,
2013-02-27 14:24:00,70.0,64.3,29.89,North,351,0.0,1.0,82,0.00,,SCT050,0.01,19.00,VWS V14.00,2013-02-27 19:24:00,
2013-02-27 14:29:00,69.6,64.2,29.88,North,351,0.0,0.0,83,0.11,,SCT050,0.02,21.00,VWS V14.00,2013-02-27 19:29:00,
2013-02-27 14:34:00,69.2,64.2,29.88,North,351,0.0,0.0,84,0.09,,SCT040,0.03,42.00,VWS V14.00,2013-02-27 19:34:00,
2013-02-27 14:39:00,68.9,64.2,29.88,NE,37,1.0,1.0,85,0.09,,SCT040,0.03,28.00,VWS V14.00,2013-02-27 19:39:00,
2013-02-27 14:44:00,68.7,64.3,29.88,NE,36,0.0,0.0,86,0.05,,SCT040,0.03,19.00,VWS V14.00,2013-02-27 19:44:00,
2013-02-27 14:49:00,68.6,64.6,29.88,NE,36,0.0,0.0,87,0.04,,SCT040,0.04,25.00,VWS V14.00,2013-02-27 19:49:00,
2013-02-27 14:54:00,68.6,64.6,29.87,NE,36,0.0,0.0,87,0.04,,,0.04,30.00,VWS V14.00,2013-02-27 19:54:00,
2013-02-27 14:59:00,68.5,64.5,29.87,NE,36,0.0,0.0,87,0.04,,,0.04,32.00,VWS V14.00,2013-02-27 19:59:00,
2013-02-27 15:05:00,68.6,64.9,29.87,NE,36,0.0,0.0,88,0.04,,,0.04,21.00,VWS V14.00,2013-02-27 20:05:00,
2013-02-27 15:10:00,68.7,65.0,29.87,NE,36,0.0,0.0,88,0.00,,,0.04,11.00,VWS V14.00,2013-02-27 20:10:00,
2013-02-27 15:15:00,68.4,64.7,29.88,NE,36,0.0,1.0,88,0.00,,,0.04,7.00,VWS V14.00,2013-02-27 20:15:00,
2013-02-27 15:20:00,68.3,64.6,29.88,NE,36,0.0,0.0,88,0.00,,,0.04,14.00,VWS V14.00,2013-02-27 20:20:00,
2013-02-27 15:25:00,68.2,64.5,29.87,NE,36,0.0,0.0,88,0.00,,,0.04,16.00,VWS V14.00,2013-02-27 20:25:00,
2013-02-27 15:30:00,68.1,64.7,29.87,NE,36,0.0,1.0,89,0.00,,,0.04,18.00,VWS V14.00,2013-02-27 20:30:00,
2013-02-27 15:35:00,67.4,63.7,29.87,NE,36,0.0,0.0,88,0.00,,,0.05,23.00,VWS V14.00,2013-02-27 20:35:00,
2013-02-27 15:40:00,67.3,64.0,29.86,NE,36,0.0,0.0,89,0.00,,,0.05,28.00,VWS V14.00,2013-02-27 20:40:00,
2013-02-27 15:45:00,67.3,64.0,29.86,NE,36,0.0,1.0,89,0.00,,,0.05,32.00,VWS V14.00,2013-02-27 20:45:00,
2013-02-27 15:50:00,67.0,63.7,29.86,NE,36,0.0,1.0,89,0.00,,,0.05,30.00,VWS V14.00,2013-02-27 20:50:00,
2013-02-27 15:55:00,67.0,64.0,29.87,NE,36,2.0,3.0,90,0.00,,,0.05,25.00,VWS V14.00,2013-02-27 20:55:00,
2013-02-27 16:00:00,67.1,64.1,29.87,NE,36,6.0,6.0,90,0.00,,,0.06,16.00,VWS V14.00,2013-02-27 21:00:00,
2013-02-27 16:05:00,67.2,64.2,29.87,NE,36,5.0,5.0,90,0.00,,,0.06,9.00,VWS V14.00,2013-02-27 21:05:00,
2013-02-27 16:10:00,67.2,64.2,29.87,NE,35,3.0,4.0,90,0.00,,,0.06,11.00,VWS V14.00,2013-02-27 21:10:00,
2013-02-27 16:15:00,67.1,64.4,29.87,NNE,15,5.0,7.0,91,0.00,,,0.06,0.00,VWS V14.00,2013-02-27 21:15:00,
2013-02-27 16:20:00,66.9,64.2,29.87,North,5,3.0,5.0,91,0.00,,,0.06,5.00,VWS V14.00,2013-02-27 21:20:00,
2013-02-27 16:25:00,66.7,64.0,29.88,North,5,2.0,6.0,91,0.00,,,0.07,7.00,VWS V14.00,2013-02-27 21:25:00,
2013-02-27 16:30:00,66.5,63.8,29.88,North,355,5.0,5.0,91,0.00,,,0.07,5.00,VWS V14.00,2013-02-27 21:30:00,
2013-02-27 16:35:00,66.3,63.6,29.88,North,350,3.0,9.0,91,0.00,,SCT040,0.07,0.00,VWS V14.00,2013-02-27 21:35:00,
2013-02-27 16:40:00,66.3,63.6,29.88,NNW,348,4.0,5.0,91,0.00,,SCT040,0.07,0.00,VWS V14.00,2013-02-27 21:40:00,
2013-02-27 16:45:00,66.2,63.5,29.89,NNW,347,1.0,4.0,91,0.00,,SCT040,0.07,7.00,VWS V14.00,2013-02-27 21:45:00,
2013-02-27 16:50:00,66.1,63.4,29.89,NNW,347,5.0,6.0,91,0.00,,SCT040,0.07,5.00,VWS V14.00,2013-02-27 21:50:00,
2013-02-27 16:55:00,65.9,63.2,29.89,NNW,347,5.0,9.0,91,0.00,,SCT040,0.08,0.00,VWS V14.00,2013-02-27 21:55:00,
2013-02-27 17:00:00,65.9,63.5,29.89,NNW,347,3.0,7.0,92,0.00,,SCT040,0.08,7.00,VWS V14.00,2013-02-27 22:00:00,
2013-02-27 17:05:00,66.0,63.6,29.89,NNW,347,4.0,6.0,92,0.00,,SCT040,0.08,12.00,VWS V14.00,2013-02-27 22:05:00,
2013-02-27 17:10:00,65.7,63.3,29.89,NNW,347,3.0,3.0,92,0.00,,SCT040,0.08,0.00,VWS V14.00,2013-02-27 22:10:00,
2013-02-27 17:15:00,65.6,62.9,29.89,NNW,347,3.0,3.0,91,0.00,,SCT040,0.08,0.00,VWS V14.00,2013-02-27 22:15:00,
2013-02-27 17:20:00,65.7,63.3,29.89,NNW,347,0.0,0.0,92,0.00,,SCT040,0.08,5.00,VWS V14.00,2013-02-27 22:20:00,
2013-02-27 17:25:00,65.7,63.3,29.88,NNW,347,0.0,0.0,92,0.00,,SCT040,0.09,0.00,VWS V14.00,2013-02-27 22:25:00,
2013-02-27 17:30:00,65.8,63.4,29.88,NNW,347,0.0,1.0,92,0.00,,SCT040,0.09,0.00,VWS V14.00,2013-02-27 22:30:00,
2013-02-27 17:35:00,65.8,63.4,29.88,NNW,347,0.0,0.0,92,0.00,,-RA,0.09,0.00,VWS V14.00,2013-02-27 22:35:00,
2013-02-27 17:40:00,65.8,63.4,29.88,NNW,347,0.0,0.0,92,0.00,,-RA,0.09,0.00,VWS V14.00,2013-02-27 22:40:00,
2013-02-27 17:45:00,65.7,63.3,29.88,NNW,347,0.0,0.0,92,0.00,,-RA,0.09,0.00,VWS V14.00,2013-02-27 22:45:00,
2013-02-27 17:50:00,65.8,63.4,29.89,NNW,347,0.0,0.0,92,0.00,,-RA,0.10,0.00,VWS V14.00,2013-02-27 22:50:00,
2013-02-27 17:55:00,65.8,63.4,29.89,NNW,347,0.0,2.0,92,0.00,,-RA,0.10,0.00,VWS V14.00,2013-02-27 22:55:00,
2013-02-27 18:01:00,65.8,63.4,29.89,NNW,347,0.0,0.0,92,0.00,,-RA,0.10,0.00,VWS V14.00,2013-02-27 23:01:00,
2013-02-27 18:06:00,65.8,63.4,29.89,NNW,347,0.0,0.0,92,0.00,,-RA,0.10,0.00,VWS V14.00,2013-02-27 23:06:00,
2013-02-27 18:11:00,65.8,63.4,29.89,NNW,347,0.0,1.0,92,0.00,,-RA,0.10,0.00,VWS V14.00,2013-02-27 23:11:00,
2013-02-27 18:16:00,65.9,63.5,29.89,NNW,347,0.0,0.0,92,0.00,,-RA,0.10,0.00,VWS V14.00,2013-02-27 23:16:00,
2013-02-27 18:21:00,65.8,63.4,29.89,NNW,347,0.0,0.0,92,0.00,,-RA,0.11,0.00,VWS V14.00,2013-02-27 23:21:00,
2013-02-27 18:26:00,65.8,63.4,29.89,NNW,347,0.0,0.0,92,0.00,,-RA,0.11,0.00,VWS V14.00,2013-02-27 23:26:00,
2013-02-27 18:31:00,65.8,63.4,29.89,NNW,347,0.0,2.0,92,0.00,,-RA,0.11,0.00,VWS V14.00,2013-02-27 23:31:00,
2013-02-27 18:36:00,65.8,63.4,29.89,NNW,347,0.0,0.0,92,0.00,,-RA,0.11,0.00,VWS V14.00,2013-02-27 23:36:00,
2013-02-27 18:41:00,65.9,63.5,29.89,NNW,347,0.0,0.0,92,0.00,,-RA,0.11,0.00,VWS V14.00,2013-02-27 23:41:00,
2013-02-27 18:46:00,65.9,63.5,29.90,NNW,347,0.0,0.0,92,0.00,,-RA,0.11,0.00,VWS V14.00,2013-02-27 23:46:00,
2013-02-27 18:51:00,66.0,63.6,29.89,NNW,347,1.0,1.0,92,0.00,,-RA,0.12,0.00,VWS V14.00,2013-02-27 23:51:00,
2013-02-27 18:56:00,65.9,63.5,29.89,NNW,347,2.0,6.0,92,0.00,,-RA,0.12,0.00,VWS V14.00,2013-02-27 23:56:00,
2013-02-27 19:01:00,65.8,63.4,29.90,NNW,344,4.0,5.0,92,0.00,,-RA,0.12,0.00,VWS V14.00,2013-02-28 00:01:00,
2013-02-27 19:06:00,65.4,63.0,29.90,NNW,344,2.0,4.0,92,0.00,,-RA,0.12,0.00,VWS V14.00,2013-02-28 00:06:00,
2013-02-27 19:11:00,65.3,62.9,29.90,NNW,344,0.0,1.0,92,0.00,,BKN005,0.12,0.00,VWS V14.00,2013-02-28 00:11:00,
2013-02-27 19:16:00,65.2,62.8,29.89,NNW,344,0.0,0.0,92,0.00,,BKN005,0.12,0.00,VWS V14.00,2013-02-28 00:16:00,
2013-02-27 19:21:00,65.1,62.7,29.90,NNW,344,0.0,0.0,92,0.00,,BKN005,0.13,0.00,VWS V14.00,2013-02-28 00:21:00,
2013-02-27 19:26:00,65.2,62.8,29.90,NNW,344,0.0,1.0,92,0.00,,BKN005,0.13,0.00,VWS V14.00,2013-02-28 00:26:00,
2013-02-27 19:31:00,65.1,62.7,29.90,NNW,344,0.0,1.0,92,0.00,,BKN005,0.13,0.00,VWS V14.00,2013-02-28 00:31:00,
2013-02-27 19:36:00,65.2,62.8,29.90,NNW,344,0.0,0.0,92,0.00,,BKN005,0.13,0.00,VWS V14.00,2013-02-28 00:36:00,
2013-02-27 19:41:00,65.3,62.9,29.90,NNW,344,0.0,0.0,92,0.00,,BKN005,0.13,0.00,VWS V14.00,2013-02-28 00:41:00,
2013-02-27 19:46:00,65.3,62.9,29.90,NNW,344,0.0,0.0,92,0.00,,BKN005,0.13,0.00,VWS V14.00,2013-02-28 00:46:00,
2013-02-27 19:51:00,65.5,63.1,29.90,NNW,344,0.0,0.0,92,0.00,,BKN005,0.14,0.00,VWS V14.00,2013-02-28 00:51:00,
2013-02-27 19:56:00,65.5,63.1,29.90,NNW,344,0.0,0.0,92,0.00,,BKN005,0.14,0.00,VWS V14.00,2013-02-28 00:56:00,
2013-02-27 20:01:00,65.5,63.1,29.91,NNW,344,0.0,0.0,92,0.00,,BKN005,0.14,0.00,VWS V14.00,2013-02-28 01:01:00,
2013-02-27 20:06:00,65.6,63.2,29.91,NNW,344,0.0,1.0,92,0.00,,BKN005,0.14,0.00,VWS V14.00,2013-02-28 01:06:00,
2013-02-27 20:11:00,65.7,63.3,29.92,NNW,344,0.0,0.0,92,0.00,,BKN005,0.15,0.00,VWS V14.00,2013-02-28 01:11:00,
2013-02-27 20:16:00,65.9,63.5,29.93,NNW,344,0.0,4.0,92,0.00,,BKN005,0.15,0.00,VWS V14.00,2013-02-28 01:16:00,
2013-02-27 20:21:00,65.8,63.4,29.93,NNW,344,2.0,3.0,92,0.00,,BKN005,0.15,0.00,VWS V14.00,2013-02-28 01:21:00,
2013-02-27 20:26:00,65.7,63.3,29.92,NNW,344,3.0,4.0,92,0.00,,BKN005,0.15,0.00,VWS V14.00,2013-02-28 01:26:00,
2013-02-27 20:31:00,65.8,63.4,29.92,NNW,344,0.0,3.0,92,0.00,,BKN005,0.16,0.00,VWS V14.00,2013-02-28 01:31:00,
2013-02-27 20:36:00,65.8,63.4,29.92,NNW,344,1.0,1.0,92,0.00,,BKN005,0.16,0.00,VWS V14.00,2013-02-28 01:36:00,
2013-02-27 20:41:00,65.6,63.2,29.92,NNW,344,0.0,1.0,92,0.00,,BKN005,0.16,0.00,VWS V14.00,2013-02-28 01:41:00,
2013-02-27 20:46:00,65.5,63.1,29.92,NNW,344,3.0,4.0,92,0.00,,BKN005,0.17,0.00,VWS V14.00,2013-02-28 01:46:00,
2013-02-27 20:51:00,65.3,62.9,29.92,NNW,343,3.0,4.0,92,0.00,,BKN005,0.17,0.00,VWS V14.00,2013-02-28 01:51:00,
2013-02-27 20:56:00,65.3,62.9,29.91,NNW,343,0.0,2.0,92,0.00,,BKN005,0.17,0.00,VWS V14.00,2013-02-28 01:56:00,
2013-02-27 21:01:00,65.3,62.9,29.91,NNW,343,0.0,0.0,92,0.04,,BKN005,0.18,0.00,VWS V14.00,2013-02-28 02:01:00,
2013-02-27 21:06:00,65.3,62.9,29.91,NNW,343,0.0,0.0,92,0.04,,BKN005,0.18,0.00,VWS V14.00,2013-02-28 02:06:00,
2013-02-27 21:11:00,65.3,62.9,29.91,NNW,343,0.0,0.0,92,0.04,,BKN005,0.18,0.00,VWS V14.00,2013-02-28 02:11:00,
2013-02-27 21:16:00,65.2,62.8,29.91,NNW,343,0.0,3.0,92,0.04,,BKN005,0.18,0.00,VWS V14.00,2013-02-28 02:16:00,
2013-02-27 21:21:00,65.2,62.8,29.91,NNW,343,0.0,1.0,92,0.04,,BKN005,0.19,0.00,VWS V14.00,2013-02-28 02:21:00,
2013-02-27 21:26:00,65.2,62.8,29.91,NNW,343,0.0,0.0,92,0.04,,BKN005,0.19,0.00,VWS V14.00,2013-02-28 02:26:00,
2013-02-27 21:31:00,65.2,62.8,29.91,NNW,343,0.0,1.0,92,0.05,,BKN005,0.20,0.00,VWS V14.00,2013-02-28 02:31:00,
2013-02-27 21:36:00,65.1,62.7,29.91,NNW,343,0.0,0.0,92,0.05,,-RA,0.20,0.00,VWS V14.00,2013-02-28 02:36:00,
2013-02-27 21:41:00,65.2,62.8,29.90,NNW,343,0.0,1.0,92,0.05,,-RA,0.20,0.00,VWS V14.00,2013-02-28 02:41:00,
2013-02-27 21:46:00,65.2,62.8,29.91,NNW,343,0.0,0.0,92,0.04,,-RA,0.21,0.00,VWS V14.00,2013-02-28 02:46:00,
2013-02-27 21:51:00,65.1,62.7,29.91,NNW,343,0.0,1.0,92,0.04,,-RA,0.21,0.00,VWS V14.00,2013-02-28 02:51:00,
2013-02-27 21:56:00,65.0,62.6,29.91,NNW,343,2.0,2.0,92,0.06,,-RA,0.22,0.00,VWS V14.00,2013-02-28 02:56:00,
2013-02-27 22:01:00,65.0,62.6,29.91,NNW,343,0.0,1.0,92,0.06,,-RA,0.22,0.00,VWS V14.00,2013-02-28 03:01:00,
2013-02-27 22:06:00,65.2,62.8,29.91,NNW,343,0.0,3.0,92,0.07,,-RA,0.23,0.00,VWS V14.00,2013-02-28 03:06:00,
2013-02-27 22:11:00,65.2,62.8,29.91,NNW,343,0.0,4.0,92,0.08,,-RA,0.24,0.00,VWS V14.00,2013-02-28 03:11:00,
2013-02-27 22:16:00,65.2,62.8,29.91,NNW,343,0.0,3.0,92,0.08,,-RA,0.24,0.00,VWS V14.00,2013-02-28 03:16:00,
2013-02-27 22:21:00,65.2,62.8,29.91,NNW,343,2.0,4.0,92,0.08,,-RA,0.25,0.00,VWS V14.00,2013-02-28 03:21:00,
2013-02-27 22:26:00,65.2,62.8,29.91,NNW,343,1.0,3.0,92,0.07,,-RA,0.25,0.00,VWS V14.00,2013-02-28 03:26:00,
2013-02-27 22:32:00,65.3,62.9,29.91,NNW,343,2.0,2.0,92,0.05,,-RA,0.26,0.00,VWS V14.00,2013-02-28 03:32:00,
2013-02-27 22:37:00,65.3,62.9,29.91,NNW,343,0.0,0.0,92,0.05,,-RA,0.26,0.00,VWS V14.00,2013-02-28 03:37:00,
2013-02-27 22:42:00,65.3,62.9,29.92,NNW,343,0.0,0.0,92,0.05,,-RA,0.26,0.00,VWS V14.00,2013-02-28 03:42:00,
2013-02-27 22:47:00,65.4,63.0,29.92,NNW,343,0.0,0.0,92,0.04,,-RA,0.27,0.00,VWS V14.00,2013-02-28 03:47:00,
2013-02-27 22:52:00,65.5,63.1,29.92,NNW,343,0.0,0.0,92,0.04,,-RA,0.27,0.00,VWS V14.00,2013-02-28 03:52:00,
2013-02-27 22:57:00,65.3,62.9,29.92,NNW,343,0.0,0.0,92,0.04,,-RA,0.27,0.00,VWS V14.00,2013-02-28 03:57:00,
2013-02-27 23:02:00,65.3,62.9,29.92,NNW,343,0.0,2.0,92,0.00,,-RA,0.28,0.00,VWS V14.00,2013-02-28 04:02:00,
2013-02-27 23:07:00,65.3,62.9,29.92,NNW,343,0.0,0.0,92,0.00,,-RA,0.28,0.00,VWS V14.00,2013-02-28 04:07:00,
2013-02-27 23:12:00,65.5,63.1,29.92,NNW,343,0.0,2.0,92,0.00,,-RA,0.28,0.00,VWS V14.00,2013-02-28 04:12:00,
2013-02-27 23:17:00,65.5,63.1,29.93,NNW,343,0.0,5.0,92,0.00,,-RA,0.28,0.00,VWS V14.00,2013-02-28 04:17:00,
2013-02-27 23:22:00,65.5,63.1,29.92,NNW,343,0.0,3.0,92,0.00,,-RA,0.29,0.00,VWS V14.00,2013-02-28 04:22:00,
2013-02-27 23:27:00,65.5,63.1,29.92,NNW,342,0.0,3.0,92,0.00,,-RA,0.29,0.00,VWS V14.00,2013-02-28 04:27:00,
2013-02-27 23:32:00,65.4,63.0,29.92,NNW,342,0.0,0.0,92,0.00,,-RA,0.29,0.00,VWS V14.00,2013-02-28 04:32:00,
2013-02-27 23:37:00,65.3,62.9,29.92,NNW,335,0.0,3.0,92,0.00,,-RA,0.29,0.00,VWS V14.00,2013-02-28 04:37:00,
2013-02-27 23:42:00,65.2,62.8,29.91,NNW,334,0.0,3.0,92,0.00,,-RA,0.29,0.00,VWS V14.00,2013-02-28 04:42:00,
2013-02-27 23:47:00,65.2,62.8,29.91,NNW,334,0.0,0.0,92,0.00,,-RA,0.30,0.00,VWS V14.00,2013-02-28 04:47:00,
2013-02-27 23:52:00,65.1,62.7,29.91,NNW,334,0.0,2.0,92,0.00,,-RA,0.30,0.00,VWS V14.00,2013-02-28 04:52:00,
2013-02-27 23:57:00,65.1,62.7,29.91,NNW,334,0.0,0.0,92,0.00,,-RA,0.30,0.00,VWS V14.00,2013-02-28 04:57:00,